createdAt,value
2017-05-07T00:00:28.854Z,0
2017-05-07T00:01:01.130Z,0
2017-05-07T00:01:34.335Z,0
2017-05-07T00:02:06.776Z,0
2017-05-07T00:02:39.048Z,0
2017-05-07T00:03:11.720Z,0
2017-05-07T00:03:44.152Z,0
2017-05-07T00:04:16.438Z,0
2017-05-07T00:04:48.693Z,0
2017-05-07T00:05:20.953Z,0
2017-05-07T00:05:53.207Z,0
2017-05-07T00:06:27.437Z,0
2017-05-07T00:07:00.610Z,0
2017-05-07T00:07:32.880Z,0
2017-05-07T00:08:05.171Z,0
2017-05-07T00:08:37.434Z,0
2017-05-07T00:09:12.396Z,0
2017-05-07T00:09:45.570Z,0
2017-05-07T00:10:17.831Z,0
2017-05-07T00:10:50.077Z,0
2017-05-07T00:11:22.342Z,0
2017-05-07T00:11:54.593Z,0
2017-05-07T00:12:26.839Z,0
2017-05-07T00:12:59.106Z,0
2017-05-07T00:13:31.362Z,0
2017-05-07T00:14:04.605Z,0
2017-05-07T00:14:36.877Z,0
2017-05-07T00:15:09.133Z,0
2017-05-07T00:15:41.382Z,0
2017-05-07T00:16:13.640Z,0
2017-05-07T00:16:45.899Z,0
2017-05-07T00:17:18.176Z,0
2017-05-07T00:17:50.445Z,0
2017-05-07T00:18:22.732Z,0
2017-05-07T00:18:55.012Z,0
2017-05-07T00:19:27.285Z,0
2017-05-07T00:19:59.529Z,0
2017-05-07T00:20:31.770Z,0
2017-05-07T00:21:04.029Z,0
2017-05-07T00:21:36.292Z,0
2017-05-07T00:22:08.611Z,0
2017-05-07T00:22:40.882Z,0
2017-05-07T00:23:14.633Z,0
2017-05-07T00:23:46.910Z,0
2017-05-07T00:24:19.177Z,0
2017-05-07T00:24:51.423Z,0
2017-05-07T00:25:24.645Z,0
2017-05-07T00:25:56.922Z,0
2017-05-07T00:26:29.168Z,0
2017-05-07T00:27:02.115Z,0
2017-05-07T00:27:35.063Z,0
2017-05-07T00:28:07.322Z,0
2017-05-07T00:28:40.085Z,0
2017-05-07T00:29:12.365Z,0
2017-05-07T00:29:44.643Z,0
2017-05-07T00:30:16.898Z,0
2017-05-07T00:30:49.167Z,0
2017-05-07T00:31:21.440Z,0
2017-05-07T00:31:54.582Z,0
2017-05-07T00:32:26.841Z,0
2017-05-07T00:32:59.113Z,0
2017-05-07T00:33:31.365Z,0
2017-05-07T00:34:03.632Z,0
2017-05-07T00:34:35.925Z,0
2017-05-07T00:35:08.189Z,0
2017-05-07T00:35:40.451Z,0
2017-05-07T00:36:12.704Z,0
2017-05-07T00:36:44.951Z,0
2017-05-07T00:37:17.211Z,0
2017-05-07T00:37:49.466Z,0
2017-05-07T00:38:21.705Z,0
2017-05-07T00:38:53.951Z,0
2017-05-07T00:39:26.202Z,0
2017-05-07T00:39:58.506Z,0
2017-05-07T00:40:30.757Z,0
2017-05-07T00:41:03.513Z,0
2017-05-07T00:41:35.773Z,0
2017-05-07T00:42:08.043Z,0
2017-05-07T00:42:40.344Z,0
2017-05-07T00:43:12.647Z,0
2017-05-07T00:43:44.930Z,0
2017-05-07T00:44:17.208Z,0
2017-05-07T00:44:49.500Z,0
2017-05-07T00:45:21.807Z,0
2017-05-07T00:45:54.102Z,0
2017-05-07T00:46:26.371Z,0
2017-05-07T00:46:58.672Z,0
2017-05-07T00:47:30.959Z,0
2017-05-07T00:48:03.244Z,0
2017-05-07T00:48:35.546Z,0
2017-05-07T00:49:07.831Z,0
2017-05-07T00:49:40.116Z,0
2017-05-07T00:50:12.408Z,0
2017-05-07T00:50:44.701Z,0
2017-05-07T00:51:16.992Z,0
2017-05-07T00:51:49.283Z,0
2017-05-07T00:52:21.550Z,0
2017-05-07T00:52:54.541Z,0
2017-05-07T00:53:26.796Z,0
2017-05-07T00:53:59.059Z,0
2017-05-07T00:54:31.314Z,0
2017-05-07T00:55:03.569Z,0
2017-05-07T00:55:35.821Z,0
2017-05-07T00:56:09.723Z,0
2017-05-07T00:56:41.977Z,0
2017-05-07T00:57:14.240Z,0
2017-05-07T00:57:46.497Z,0
2017-05-07T00:58:18.761Z,0
2017-05-07T00:58:51.093Z,0
2017-05-07T00:59:23.341Z,0
2017-05-07T00:59:55.617Z,0
2017-05-07T01:00:27.894Z,0
2017-05-07T01:01:00.177Z,0
2017-05-07T01:01:32.443Z,0
2017-05-07T01:02:04.700Z,0
2017-05-07T01:02:36.981Z,0
2017-05-07T01:03:09.245Z,0
2017-05-07T01:03:42.163Z,0
2017-05-07T01:04:14.425Z,0
2017-05-07T01:04:46.671Z,0
2017-05-07T01:05:18.930Z,0
2017-05-07T01:05:51.212Z,0
2017-05-07T01:06:23.486Z,0
2017-05-07T01:06:55.743Z,0
2017-05-07T01:07:28.018Z,0
2017-05-07T01:08:00.296Z,0
2017-05-07T01:08:32.546Z,0
2017-05-07T01:09:04.811Z,0
2017-05-07T01:09:37.149Z,0
2017-05-07T01:10:09.410Z,0
2017-05-07T01:10:41.718Z,0
2017-05-07T01:11:13.984Z,0
2017-05-07T01:11:46.239Z,0
2017-05-07T01:12:18.485Z,0
2017-05-07T01:12:50.744Z,0
2017-05-07T01:13:23.533Z,0
2017-05-07T01:13:55.890Z,0
2017-05-07T01:14:28.159Z,0
2017-05-07T01:15:00.538Z,0
2017-05-07T01:15:32.781Z,0
2017-05-07T01:16:05.022Z,0
2017-05-07T01:16:37.289Z,0
2017-05-07T01:17:09.535Z,0
2017-05-07T01:17:41.795Z,0
2017-05-07T01:18:14.047Z,0
2017-05-07T01:18:46.289Z,0
2017-05-07T01:19:18.555Z,0
2017-05-07T01:19:50.801Z,0
2017-05-07T01:20:23.049Z,0
2017-05-07T01:20:55.330Z,0
2017-05-07T01:21:27.598Z,0
2017-05-07T01:21:59.848Z,0
2017-05-07T01:22:32.107Z,0
2017-05-07T01:23:04.405Z,0
2017-05-07T01:23:36.690Z,0
2017-05-07T01:24:08.977Z,0
2017-05-07T01:24:41.267Z,0
2017-05-07T01:25:13.544Z,0
2017-05-07T01:25:45.821Z,0
2017-05-07T01:26:18.123Z,0
2017-05-07T01:26:50.410Z,0
2017-05-07T01:27:22.696Z,0
2017-05-07T01:27:54.977Z,0
2017-05-07T01:28:27.281Z,0
2017-05-07T01:28:59.563Z,0
2017-05-07T01:29:31.848Z,0
2017-05-07T01:30:04.144Z,0
2017-05-07T01:30:36.427Z,0
2017-05-07T01:31:08.703Z,0
2017-05-07T01:31:40.984Z,0
2017-05-07T01:32:13.251Z,0
2017-05-07T01:32:45.511Z,0
2017-05-07T01:33:18.534Z,0
2017-05-07T01:33:51.530Z,0
2017-05-07T01:34:23.801Z,0
2017-05-07T01:34:56.104Z,0
2017-05-07T01:35:28.507Z,0
2017-05-07T01:36:00.746Z,0
2017-05-07T01:36:32.993Z,0
2017-05-07T01:37:05.266Z,0
2017-05-07T01:37:37.517Z,0
2017-05-07T01:38:09.787Z,0
2017-05-07T01:38:42.078Z,0
2017-05-07T01:39:14.354Z,0
2017-05-07T01:39:46.605Z,0
2017-05-07T01:40:18.898Z,0
2017-05-07T01:40:51.201Z,0
2017-05-07T01:41:23.483Z,0
2017-05-07T01:41:55.752Z,0
2017-05-07T01:42:28.023Z,0
2017-05-07T01:43:00.315Z,0
2017-05-07T01:43:32.599Z,0
2017-05-07T01:44:04.913Z,0
2017-05-07T01:44:37.185Z,0
2017-05-07T01:45:09.484Z,0
2017-05-07T01:45:41.769Z,0
2017-05-07T01:46:14.044Z,0
2017-05-07T01:46:46.332Z,0
2017-05-07T01:47:18.631Z,0
2017-05-07T01:47:50.911Z,0
2017-05-07T01:48:23.192Z,0
2017-05-07T01:48:55.484Z,0
2017-05-07T01:49:27.763Z,0
2017-05-07T01:50:00.049Z,0
2017-05-07T01:50:32.338Z,0
2017-05-07T01:51:04.622Z,0
2017-05-07T01:51:36.905Z,0
2017-05-07T01:52:09.187Z,0
2017-05-07T01:52:41.507Z,0
2017-05-07T01:53:13.802Z,0
2017-05-07T01:53:46.084Z,0
2017-05-07T01:54:18.361Z,0
2017-05-07T01:54:50.654Z,0
2017-05-07T01:55:22.939Z,0
2017-05-07T01:55:55.230Z,0
2017-05-07T01:56:27.517Z,0
2017-05-07T01:56:59.808Z,0
2017-05-07T01:57:32.091Z,0
2017-05-07T01:58:04.374Z,0
2017-05-07T01:58:36.672Z,0
2017-05-07T01:59:08.959Z,0
2017-05-07T01:59:41.252Z,0
2017-05-07T02:00:13.535Z,0
2017-05-07T02:00:45.822Z,0
2017-05-07T02:01:18.102Z,0
2017-05-07T02:01:50.389Z,0
2017-05-07T02:02:22.664Z,0
2017-05-07T02:02:54.928Z,0
2017-05-07T02:03:27.228Z,0
2017-05-07T02:03:59.538Z,0
2017-05-07T02:04:31.836Z,0
2017-05-07T02:05:04.131Z,0
2017-05-07T02:05:36.424Z,0
2017-05-07T02:06:08.708Z,0
2017-05-07T02:06:40.984Z,0
2017-05-07T02:07:13.259Z,0
2017-05-07T02:07:45.545Z,0
2017-05-07T02:08:17.847Z,0
2017-05-07T02:08:50.130Z,0
2017-05-07T02:09:22.409Z,0
2017-05-07T02:09:54.706Z,0
2017-05-07T02:10:27.008Z,0
2017-05-07T02:10:59.284Z,0
2017-05-07T02:11:31.564Z,0
2017-05-07T02:12:03.832Z,0
2017-05-07T02:12:36.096Z,0
2017-05-07T02:13:08.340Z,0
2017-05-07T02:13:40.606Z,0
2017-05-07T02:14:12.977Z,0
2017-05-07T02:14:45.221Z,0
2017-05-07T02:15:17.453Z,0
2017-05-07T02:15:49.702Z,0
2017-05-07T02:16:23.224Z,0
2017-05-07T02:16:55.500Z,0
2017-05-07T02:17:27.759Z,0
2017-05-07T02:18:00.100Z,0
2017-05-07T02:18:32.369Z,0
2017-05-07T02:19:04.634Z,0
2017-05-07T02:19:36.890Z,0
2017-05-07T02:20:09.137Z,0
2017-05-07T02:20:41.400Z,0
2017-05-07T02:21:13.651Z,0
2017-05-07T02:21:45.894Z,0
2017-05-07T02:22:18.153Z,0
2017-05-07T02:22:50.427Z,0
2017-05-07T02:23:23.564Z,0
2017-05-07T02:23:55.845Z,0
2017-05-07T02:24:28.100Z,0
2017-05-07T02:25:01.142Z,0
2017-05-07T02:25:33.398Z,0
2017-05-07T02:26:05.649Z,0
2017-05-07T02:26:38.681Z,0
2017-05-07T02:27:10.950Z,0
2017-05-07T02:27:43.213Z,0
2017-05-07T02:28:15.463Z,0
2017-05-07T02:28:48.604Z,0
2017-05-07T02:29:20.978Z,0
2017-05-07T02:29:53.224Z,0
2017-05-07T02:30:26.261Z,0
2017-05-07T02:30:58.519Z,0
2017-05-07T02:31:30.762Z,0
2017-05-07T02:32:03.023Z,0
2017-05-07T02:32:35.310Z,0
2017-05-07T02:33:07.583Z,0
2017-05-07T02:33:39.877Z,0
2017-05-07T02:34:12.154Z,0
2017-05-07T02:34:44.438Z,0
2017-05-07T02:35:16.738Z,0
2017-05-07T02:35:49.026Z,0
2017-05-07T02:36:21.321Z,0
2017-05-07T02:36:53.603Z,0
2017-05-07T02:37:25.896Z,0
2017-05-07T02:37:58.177Z,0
2017-05-07T02:38:30.454Z,0
2017-05-07T02:39:02.744Z,0
2017-05-07T02:39:35.030Z,0
2017-05-07T02:40:07.328Z,0
2017-05-07T02:40:39.610Z,0
2017-05-07T02:41:11.900Z,0
2017-05-07T02:41:44.196Z,0
2017-05-07T02:42:16.473Z,0
2017-05-07T02:42:48.739Z,0
2017-05-07T02:43:21.147Z,0
2017-05-07T02:43:53.402Z,0
2017-05-07T02:44:25.658Z,0
2017-05-07T02:44:57.916Z,0
2017-05-07T02:45:30.183Z,0
2017-05-07T02:46:02.430Z,0
2017-05-07T02:46:34.804Z,0
2017-05-07T02:47:07.057Z,0
2017-05-07T02:47:39.341Z,0
2017-05-07T02:48:11.595Z,0
2017-05-07T02:48:44.773Z,0
2017-05-07T02:49:17.711Z,0
2017-05-07T02:49:49.950Z,0
2017-05-07T02:50:22.186Z,0
2017-05-07T02:50:54.434Z,0
2017-05-07T02:51:26.703Z,0
2017-05-07T02:51:58.961Z,0
2017-05-07T02:52:32.192Z,0
2017-05-07T02:53:04.462Z,0
2017-05-07T02:53:36.717Z,0
2017-05-07T02:54:08.960Z,0
2017-05-07T02:54:41.199Z,0
2017-05-07T02:55:13.456Z,0
2017-05-07T02:55:46.640Z,0
2017-05-07T02:56:19.668Z,0
2017-05-07T02:56:51.928Z,0
2017-05-07T02:57:24.195Z,0
2017-05-07T02:57:56.451Z,0
2017-05-07T02:58:28.707Z,0
2017-05-07T02:59:00.960Z,0
2017-05-07T02:59:33.226Z,0
2017-05-07T03:00:05.485Z,0
2017-05-07T03:00:37.785Z,0
2017-05-07T03:01:10.034Z,0
2017-05-07T03:01:42.413Z,0
2017-05-07T03:02:14.664Z,0
2017-05-07T03:02:46.921Z,0
2017-05-07T03:03:19.204Z,0
2017-05-07T03:03:51.471Z,0
2017-05-07T03:04:23.750Z,0
2017-05-07T03:04:56.021Z,0
2017-05-07T03:05:28.272Z,0
2017-05-07T03:06:00.531Z,0
2017-05-07T03:06:32.783Z,0
2017-05-07T03:07:05.045Z,0
2017-05-07T03:07:37.290Z,0
2017-05-07T03:08:09.560Z,0
2017-05-07T03:08:41.821Z,0
2017-05-07T03:09:14.078Z,0
2017-05-07T03:09:46.349Z,0
2017-05-07T03:10:19.283Z,0
2017-05-07T03:10:51.544Z,0
2017-05-07T03:11:23.812Z,0
2017-05-07T03:11:56.054Z,0
2017-05-07T03:12:28.290Z,0
2017-05-07T03:13:00.520Z,0
2017-05-07T03:13:32.820Z,0
2017-05-07T03:14:05.064Z,0
2017-05-07T03:14:37.310Z,0
2017-05-07T03:15:09.564Z,0
2017-05-07T03:15:41.818Z,0
2017-05-07T03:16:14.144Z,0
2017-05-07T03:16:46.515Z,0
2017-05-07T03:17:18.778Z,0
2017-05-07T03:17:51.032Z,0
2017-05-07T03:18:24.257Z,0
2017-05-07T03:18:56.520Z,4
2017-05-07T03:19:28.830Z,4
2017-05-07T03:20:01.096Z,4
2017-05-07T03:20:33.363Z,4
2017-05-07T03:21:05.708Z,4
2017-05-07T03:21:37.971Z,4
2017-05-07T03:22:10.227Z,0
2017-05-07T03:22:42.454Z,0
2017-05-07T03:23:14.741Z,4
2017-05-07T03:23:47.024Z,4
2017-05-07T03:24:19.318Z,4
2017-05-07T03:24:51.586Z,4
2017-05-07T03:25:23.857Z,4
2017-05-07T03:25:56.119Z,8
2017-05-07T03:26:28.366Z,8
2017-05-07T03:27:00.618Z,4
2017-05-07T03:27:33.734Z,4
2017-05-07T03:28:06.650Z,4
2017-05-07T03:28:38.918Z,8
2017-05-07T03:29:11.184Z,8
2017-05-07T03:29:43.446Z,8
2017-05-07T03:30:15.702Z,8
2017-05-07T03:30:47.951Z,8
2017-05-07T03:31:20.215Z,8
2017-05-07T03:31:52.513Z,8
2017-05-07T03:32:24.807Z,12
2017-05-07T03:32:57.064Z,12
2017-05-07T03:33:29.337Z,12
2017-05-07T03:34:01.609Z,12
2017-05-07T03:34:33.861Z,16
2017-05-07T03:35:06.113Z,12
2017-05-07T03:35:38.375Z,16
2017-05-07T03:36:10.618Z,16
2017-05-07T03:36:42.885Z,16
2017-05-07T03:37:15.735Z,20
2017-05-07T03:37:48.025Z,16
2017-05-07T03:38:20.267Z,20
2017-05-07T03:38:52.519Z,20
2017-05-07T03:39:24.773Z,24
2017-05-07T03:39:57.115Z,24
2017-05-07T03:40:29.402Z,28
2017-05-07T03:41:01.650Z,28
2017-05-07T03:41:35.300Z,28
2017-05-07T03:42:07.592Z,32
2017-05-07T03:42:39.885Z,32
2017-05-07T03:43:12.173Z,32
2017-05-07T03:43:44.475Z,36
2017-05-07T03:44:16.770Z,36
2017-05-07T03:44:49.074Z,40
2017-05-07T03:45:21.357Z,40
2017-05-07T03:45:53.648Z,40
2017-05-07T03:46:25.913Z,44
2017-05-07T03:46:58.183Z,44
2017-05-07T03:47:30.469Z,48
2017-05-07T03:48:02.769Z,48
2017-05-07T03:48:35.046Z,48
2017-05-07T03:49:07.330Z,52
2017-05-07T03:49:39.616Z,52
2017-05-07T03:50:11.907Z,56
2017-05-07T03:50:44.201Z,56
2017-05-07T03:51:16.480Z,60
2017-05-07T03:51:48.773Z,60
2017-05-07T03:52:21.032Z,64
2017-05-07T03:52:53.318Z,68
2017-05-07T03:53:25.700Z,68
2017-05-07T03:53:57.942Z,68
2017-05-07T03:54:30.192Z,72
2017-05-07T03:55:02.455Z,72
2017-05-07T03:55:34.723Z,76
2017-05-07T03:56:07.067Z,76
2017-05-07T03:56:39.775Z,80
2017-05-07T03:57:12.042Z,88
2017-05-07T03:57:44.337Z,88
2017-05-07T03:58:16.591Z,88
2017-05-07T03:58:48.838Z,92
2017-05-07T03:59:21.095Z,92
2017-05-07T03:59:53.359Z,96
2017-05-07T04:00:25.609Z,92
2017-05-07T04:00:57.868Z,96
2017-05-07T04:01:30.130Z,100
2017-05-07T04:02:03.157Z,100
2017-05-07T04:02:35.438Z,104
2017-05-07T04:03:07.696Z,104
2017-05-07T04:03:40.046Z,108
2017-05-07T04:04:12.306Z,112
2017-05-07T04:04:44.560Z,120
2017-05-07T04:05:17.642Z,120
2017-05-07T04:05:49.915Z,120
2017-05-07T04:06:22.161Z,124
2017-05-07T04:06:54.409Z,124
2017-05-07T04:07:26.662Z,128
2017-05-07T04:07:58.921Z,128
2017-05-07T04:08:31.817Z,132
2017-05-07T04:09:04.697Z,136
2017-05-07T04:09:37.749Z,140
2017-05-07T04:10:10.675Z,140
2017-05-07T04:10:42.910Z,140
2017-05-07T04:11:15.198Z,144
2017-05-07T04:11:47.457Z,144
2017-05-07T04:12:19.707Z,144
2017-05-07T04:12:51.958Z,144
2017-05-07T04:13:24.250Z,140
2017-05-07T04:13:56.523Z,140
2017-05-07T04:14:28.833Z,144
2017-05-07T04:15:01.090Z,148
2017-05-07T04:15:33.443Z,156
2017-05-07T04:16:05.705Z,160
2017-05-07T04:16:37.960Z,168
2017-05-07T04:17:10.204Z,176
2017-05-07T04:17:42.480Z,180
2017-05-07T04:18:14.751Z,184
2017-05-07T04:18:47.718Z,188
2017-05-07T04:19:19.994Z,192
2017-05-07T04:19:52.247Z,196
2017-05-07T04:20:24.497Z,196
2017-05-07T04:20:56.766Z,196
2017-05-07T04:21:29.018Z,200
2017-05-07T04:22:01.278Z,204
2017-05-07T04:22:33.538Z,208
2017-05-07T04:23:05.795Z,212
2017-05-07T04:23:38.035Z,216
2017-05-07T04:24:11.208Z,216
2017-05-07T04:24:43.463Z,216
2017-05-07T04:25:15.723Z,208
2017-05-07T04:25:47.977Z,208
2017-05-07T04:26:20.220Z,208
2017-05-07T04:26:52.473Z,208
2017-05-07T04:27:24.730Z,204
2017-05-07T04:27:57.759Z,208
2017-05-07T04:28:30.012Z,212
2017-05-07T04:29:02.259Z,216
2017-05-07T04:29:34.676Z,224
2017-05-07T04:30:06.925Z,236
2017-05-07T04:30:39.201Z,244
2017-05-07T04:31:11.469Z,252
2017-05-07T04:31:43.740Z,264
2017-05-07T04:32:16.022Z,264
2017-05-07T04:32:48.306Z,272
2017-05-07T04:33:20.593Z,276
2017-05-07T04:33:52.878Z,272
2017-05-07T04:34:25.173Z,276
2017-05-07T04:34:57.452Z,280
2017-05-07T04:35:29.750Z,288
2017-05-07T04:36:02.021Z,292
2017-05-07T04:36:34.330Z,292
2017-05-07T04:37:06.630Z,288
2017-05-07T04:37:38.913Z,288
2017-05-07T04:38:11.207Z,280
2017-05-07T04:38:43.521Z,280
2017-05-07T04:39:15.819Z,276
2017-05-07T04:39:48.113Z,276
2017-05-07T04:40:20.398Z,280
2017-05-07T04:40:52.686Z,292
2017-05-07T04:41:24.978Z,300
2017-05-07T04:41:57.268Z,316
2017-05-07T04:42:29.557Z,328
2017-05-07T04:43:01.844Z,340
2017-05-07T04:43:34.136Z,352
2017-05-07T04:44:06.433Z,360
2017-05-07T04:44:38.700Z,372
2017-05-07T04:45:10.968Z,376
2017-05-07T04:45:43.250Z,388
2017-05-07T04:46:15.536Z,392
2017-05-07T04:46:47.820Z,404
2017-05-07T04:47:20.102Z,408
2017-05-07T04:47:52.398Z,412
2017-05-07T04:48:24.683Z,412
2017-05-07T04:48:56.968Z,420
2017-05-07T04:49:29.253Z,428
2017-05-07T04:50:01.531Z,444
2017-05-07T04:50:33.815Z,456
2017-05-07T04:51:06.098Z,464
2017-05-07T04:51:38.388Z,472
2017-05-07T04:52:10.673Z,480
2017-05-07T04:52:42.953Z,480
2017-05-07T04:53:15.247Z,476
2017-05-07T04:53:47.534Z,476
2017-05-07T04:54:19.858Z,468
2017-05-07T04:54:52.157Z,472
2017-05-07T04:55:24.435Z,468
2017-05-07T04:55:56.722Z,472
2017-05-07T04:56:28.996Z,472
2017-05-07T04:57:01.271Z,468
2017-05-07T04:57:33.546Z,464
2017-05-07T04:58:05.815Z,468
2017-05-07T04:58:38.085Z,472
2017-05-07T04:59:10.361Z,480
2017-05-07T04:59:42.642Z,488
2017-05-07T05:00:14.918Z,492
2017-05-07T05:00:47.200Z,496
2017-05-07T05:01:19.492Z,508
2017-05-07T05:01:51.772Z,520
2017-05-07T05:02:24.027Z,532
2017-05-07T05:02:56.282Z,552
2017-05-07T05:03:28.547Z,580
2017-05-07T05:04:00.813Z,604
2017-05-07T05:04:33.841Z,620
2017-05-07T05:05:06.091Z,628
2017-05-07T05:05:38.366Z,644
2017-05-07T05:06:10.638Z,656
2017-05-07T05:06:42.883Z,664
2017-05-07T05:07:15.142Z,676
2017-05-07T05:07:47.393Z,692
2017-05-07T05:08:19.655Z,700
2017-05-07T05:08:51.908Z,708
2017-05-07T05:09:24.798Z,716
2017-05-07T05:09:57.051Z,720
2017-05-07T05:10:30.243Z,728
2017-05-07T05:11:02.498Z,732
2017-05-07T05:11:34.753Z,744
2017-05-07T05:12:07.047Z,748
2017-05-07T05:12:39.341Z,752
2017-05-07T05:13:11.622Z,756
2017-05-07T05:13:43.910Z,760
2017-05-07T05:14:16.184Z,764
2017-05-07T05:14:48.476Z,768
2017-05-07T05:15:20.759Z,760
2017-05-07T05:15:53.055Z,756
2017-05-07T05:16:25.341Z,744
2017-05-07T05:16:57.625Z,732
2017-05-07T05:17:29.896Z,724
2017-05-07T05:18:02.166Z,716
2017-05-07T05:18:34.453Z,708
2017-05-07T05:19:06.740Z,708
2017-05-07T05:19:39.017Z,712
2017-05-07T05:20:11.305Z,720
2017-05-07T05:20:43.599Z,724
2017-05-07T05:21:15.879Z,724
2017-05-07T05:21:48.168Z,736
2017-05-07T05:22:20.444Z,744
2017-05-07T05:22:52.703Z,740
2017-05-07T05:23:24.971Z,740
2017-05-07T05:23:57.213Z,736
2017-05-07T05:24:29.469Z,732
2017-05-07T05:25:01.732Z,732
2017-05-07T05:25:34.129Z,724
2017-05-07T05:26:06.378Z,720
2017-05-07T05:26:38.629Z,732
2017-05-07T05:27:10.883Z,748
2017-05-07T05:27:43.150Z,756
2017-05-07T05:28:15.397Z,780
2017-05-07T05:28:47.669Z,804
2017-05-07T05:29:19.934Z,828
2017-05-07T05:29:52.198Z,848
2017-05-07T05:30:24.461Z,864
2017-05-07T05:30:56.721Z,864
2017-05-07T05:31:28.991Z,872
2017-05-07T05:32:01.251Z,876
2017-05-07T05:32:33.530Z,872
2017-05-07T05:33:05.799Z,872
2017-05-07T05:33:38.078Z,856
2017-05-07T05:34:10.335Z,840
2017-05-07T05:34:42.630Z,824
2017-05-07T05:35:14.905Z,816
2017-05-07T05:35:47.164Z,808
2017-05-07T05:36:19.428Z,808
2017-05-07T05:36:51.696Z,808
2017-05-07T05:37:23.948Z,812
2017-05-07T05:37:57.313Z,820
2017-05-07T05:38:29.572Z,832
2017-05-07T05:39:01.809Z,848
2017-05-07T05:39:34.098Z,856
2017-05-07T05:40:07.188Z,856
2017-05-07T05:40:40.292Z,856
2017-05-07T05:41:13.302Z,856
2017-05-07T05:41:45.585Z,852
2017-05-07T05:42:17.840Z,848
2017-05-07T05:42:50.100Z,852
2017-05-07T05:43:22.334Z,852
2017-05-07T05:43:54.616Z,860
2017-05-07T05:44:26.877Z,872
2017-05-07T05:44:59.152Z,908
2017-05-07T05:45:31.421Z,952
2017-05-07T05:46:03.684Z,1000
2017-05-07T05:46:35.942Z,1040
2017-05-07T05:47:08.187Z,1052
2017-05-07T05:47:40.425Z,1040
2017-05-07T05:48:12.694Z,1004
2017-05-07T05:48:44.947Z,968
2017-05-07T05:49:17.223Z,920
2017-05-07T05:49:49.473Z,876
2017-05-07T05:50:21.756Z,832
2017-05-07T05:50:54.077Z,804
2017-05-07T05:51:26.426Z,788
2017-05-07T05:51:58.728Z,800
2017-05-07T05:52:31.018Z,828
2017-05-07T05:53:03.299Z,856
2017-05-07T05:53:35.578Z,876
2017-05-07T05:54:07.863Z,868
2017-05-07T05:54:40.144Z,824
2017-05-07T05:55:12.423Z,768
2017-05-07T05:55:44.717Z,716
2017-05-07T05:56:17.017Z,692
2017-05-07T05:56:49.318Z,692
2017-05-07T05:57:21.623Z,692
2017-05-07T05:57:53.910Z,700
2017-05-07T05:58:26.189Z,700
2017-05-07T05:58:58.518Z,704
2017-05-07T05:59:30.800Z,720
2017-05-07T06:00:03.093Z,744
2017-05-07T06:00:35.379Z,772
2017-05-07T06:01:07.662Z,796
2017-05-07T06:01:39.940Z,820
2017-05-07T06:02:12.842Z,824
2017-05-07T06:02:45.156Z,828
2017-05-07T06:03:17.411Z,824
2017-05-07T06:03:49.671Z,808
2017-05-07T06:04:21.923Z,800
2017-05-07T06:04:54.181Z,800
2017-05-07T06:05:26.448Z,804
2017-05-07T06:05:58.760Z,812
2017-05-07T06:06:31.069Z,816
2017-05-07T06:07:03.357Z,824
2017-05-07T06:07:35.629Z,832
2017-05-07T06:08:07.897Z,836
2017-05-07T06:08:40.160Z,832
2017-05-07T06:09:12.416Z,828
2017-05-07T06:09:44.692Z,824
2017-05-07T06:10:16.965Z,824
2017-05-07T06:10:49.217Z,828
2017-05-07T06:11:21.535Z,828
2017-05-07T06:11:53.801Z,828
2017-05-07T06:12:26.064Z,840
2017-05-07T06:12:58.339Z,856
2017-05-07T06:13:30.619Z,880
2017-05-07T06:14:02.882Z,892
2017-05-07T06:14:35.176Z,892
2017-05-07T06:15:07.452Z,888
2017-05-07T06:15:39.733Z,888
2017-05-07T06:16:12.018Z,880
2017-05-07T06:16:44.295Z,868
2017-05-07T06:17:16.613Z,856
2017-05-07T06:17:48.909Z,864
2017-05-07T06:18:21.192Z,884
2017-05-07T06:18:53.490Z,908
2017-05-07T06:19:25.780Z,932
2017-05-07T06:19:58.074Z,948
2017-05-07T06:20:30.382Z,956
2017-05-07T06:21:02.661Z,952
2017-05-07T06:21:34.946Z,944
2017-05-07T06:22:07.230Z,928
2017-05-07T06:22:39.504Z,928
2017-05-07T06:23:11.791Z,956
2017-05-07T06:23:44.080Z,1008
2017-05-07T06:24:16.371Z,1084
2017-05-07T06:24:48.678Z,1184
2017-05-07T06:25:20.975Z,1308
2017-05-07T06:25:53.272Z,1428
2017-05-07T06:26:25.573Z,1568
2017-05-07T06:26:57.845Z,1692
2017-05-07T06:27:30.142Z,1768
2017-05-07T06:28:02.439Z,1788
2017-05-07T06:28:34.764Z,1788
2017-05-07T06:29:07.047Z,1784
2017-05-07T06:29:39.336Z,1784
2017-05-07T06:30:11.619Z,1804
2017-05-07T06:30:43.896Z,1824
2017-05-07T06:31:16.183Z,1816
2017-05-07T06:31:48.460Z,1812
2017-05-07T06:32:20.771Z,1836
2017-05-07T06:32:53.024Z,1856
2017-05-07T06:33:25.291Z,1844
2017-05-07T06:33:57.554Z,1788
2017-05-07T06:34:29.826Z,1720
2017-05-07T06:35:02.080Z,1712
2017-05-07T06:35:34.326Z,1744
2017-05-07T06:36:06.595Z,1772
2017-05-07T06:36:38.842Z,1796
2017-05-07T06:37:11.095Z,1828
2017-05-07T06:37:43.359Z,1860
2017-05-07T06:38:15.644Z,1876
2017-05-07T06:38:47.906Z,1852
2017-05-07T06:39:20.169Z,1836
2017-05-07T06:39:52.424Z,1792
2017-05-07T06:40:25.409Z,1752
2017-05-07T06:40:57.664Z,1724
2017-05-07T06:41:29.904Z,1720
2017-05-07T06:42:02.171Z,1740
2017-05-07T06:42:34.413Z,1788
2017-05-07T06:43:06.672Z,1860
2017-05-07T06:43:38.942Z,1932
2017-05-07T06:44:11.194Z,1988
2017-05-07T06:44:43.450Z,2044
2017-05-07T06:45:15.712Z,2112
2017-05-07T06:45:47.958Z,2168
2017-05-07T06:46:20.240Z,2200
2017-05-07T06:46:52.502Z,2196
2017-05-07T06:47:24.866Z,2156
2017-05-07T06:47:57.148Z,2132
2017-05-07T06:48:29.410Z,2092
2017-05-07T06:49:01.659Z,2076
2017-05-07T06:49:33.922Z,2052
2017-05-07T06:50:06.184Z,2012
2017-05-07T06:50:38.438Z,2000
2017-05-07T06:51:10.730Z,2028
2017-05-07T06:51:42.972Z,2064
2017-05-07T06:52:15.231Z,2080
2017-05-07T06:52:47.526Z,2080
2017-05-07T06:53:19.809Z,2088
2017-05-07T06:53:52.096Z,2116
2017-05-07T06:54:24.371Z,2148
2017-05-07T06:54:56.648Z,2176
2017-05-07T06:55:28.932Z,2184
2017-05-07T06:56:01.212Z,2216
2017-05-07T06:56:33.508Z,2272
2017-05-07T06:57:05.795Z,2324
2017-05-07T06:57:38.068Z,2388
2017-05-07T06:58:10.363Z,2392
2017-05-07T06:58:42.646Z,2404
2017-05-07T06:59:14.937Z,2448
2017-05-07T06:59:47.207Z,2508
2017-05-07T07:00:19.479Z,2580
2017-05-07T07:00:51.752Z,2696
2017-05-07T07:01:24.031Z,2712
2017-05-07T07:01:56.310Z,2664
2017-05-07T07:02:28.576Z,2592
2017-05-07T07:03:00.821Z,2520
2017-05-07T07:03:33.073Z,2624
2017-05-07T07:04:05.338Z,2712
2017-05-07T07:04:37.585Z,2744
2017-05-07T07:05:09.832Z,2632
2017-05-07T07:05:42.079Z,2532
2017-05-07T07:06:14.354Z,2512
2017-05-07T07:06:46.604Z,2520
2017-05-07T07:07:18.865Z,2624
2017-05-07T07:07:51.265Z,2680
2017-05-07T07:08:23.515Z,2752
2017-05-07T07:08:55.784Z,2872
2017-05-07T07:09:28.068Z,2956
2017-05-07T07:10:00.403Z,3148
2017-05-07T07:10:32.648Z,3336
2017-05-07T07:11:04.921Z,3488
2017-05-07T07:11:37.174Z,3156
2017-05-07T07:12:09.432Z,3508
2017-05-07T07:12:41.674Z,4240
2017-05-07T07:13:13.946Z,4452
2017-05-07T07:13:46.208Z,4124
2017-05-07T07:14:18.613Z,4012
2017-05-07T07:14:50.863Z,3360
2017-05-07T07:15:23.118Z,3328
2017-05-07T07:15:56.329Z,3468
2017-05-07T07:16:28.679Z,3092
2017-05-07T07:17:00.935Z,3032
2017-05-07T07:17:33.191Z,2916
2017-05-07T07:18:05.462Z,2924
2017-05-07T07:18:37.709Z,2804
2017-05-07T07:19:09.981Z,2716
2017-05-07T07:19:42.244Z,2728
2017-05-07T07:20:15.259Z,2796
2017-05-07T07:20:47.535Z,3164
2017-05-07T07:21:19.810Z,3388
2017-05-07T07:21:52.058Z,3404
2017-05-07T07:22:24.351Z,3808
2017-05-07T07:22:56.644Z,4344
2017-05-07T07:23:28.937Z,3968
2017-05-07T07:24:01.215Z,3452
2017-05-07T07:24:33.496Z,4364
2017-05-07T07:25:05.801Z,4244
2017-05-07T07:25:38.075Z,4356
2017-05-07T07:26:10.394Z,4332
2017-05-07T07:26:42.674Z,4380
2017-05-07T07:27:14.976Z,4312
2017-05-07T07:27:47.259Z,4228
2017-05-07T07:28:19.538Z,4200
2017-05-07T07:28:51.818Z,4292
2017-05-07T07:29:24.104Z,4432
2017-05-07T07:29:56.395Z,4352
2017-05-07T07:30:28.676Z,4216
2017-05-07T07:31:00.941Z,4304
2017-05-07T07:31:33.222Z,4340
2017-05-07T07:32:05.484Z,4072
2017-05-07T07:32:37.728Z,4376
2017-05-07T07:33:09.996Z,4044
2017-05-07T07:33:42.274Z,4460
2017-05-07T07:34:14.524Z,4168
2017-05-07T07:34:46.782Z,3604
2017-05-07T07:35:19.105Z,4452
2017-05-07T07:35:51.348Z,4432
2017-05-07T07:36:23.613Z,4340
2017-05-07T07:36:55.972Z,3756
2017-05-07T07:37:28.241Z,4072
2017-05-07T07:38:00.517Z,4868
2017-05-07T07:38:32.774Z,4916